Time;durP1;ratioP1;P1;durP2;ratioP2;P2;SDS_P1;SDS_P2;PMS_P1;PMS_P2;Temp;Humidity;BMP_temperature;BMP_pressure;BME280_temperature;BME280_humidity;BME280_pressure;Samples;Min_cycle;Max_cycle;Signal;HPM_P1;HPM_P2
2023/09/10 00:01:05;;;;;;;17.73;15.47;;;19.60;99.90;;;;;;5031910;28;20575;-63
2023/09/10 00:03:32;;;;;;;15.52;13.98;;;19.50;99.90;;;;;;5035928;28;20607;-62
2023/09/10 00:05:59;;;;;;;16.95;15.18;;;19.50;99.90;;;;;;5037994;28;20207;-62
2023/09/10 00:08:25;;;;;;;16.67;14.95;;;19.50;99.90;;;;;;5037910;28;20194;-63
2023/09/10 00:10:51;;;;;;;19.83;15.07;;;19.50;99.90;;;;;;5038604;28;20613;-63
2023/09/10 00:13:17;;;;;;;17.20;15.23;;;19.50;99.90;;;;;;5037540;28;20574;-62
2023/09/10 00:15:43;;;;;;;16.27;14.50;;;19.40;99.90;;;;;;5031857;28;20586;-62
2023/09/10 00:18:08;;;;;;;16.70;14.93;;;19.50;99.90;;;;;;5016673;28;20217;-65
2023/09/10 00:20:34;;;;;;;17.58;13.40;;;19.50;99.90;;;;;;5037894;28;20264;-65
2023/09/10 00:22:59;;;;;;;16.92;14.75;;;19.50;99.90;;;;;;5034211;28;20202;-65
2023/09/10 00:25:25;;;;;;;16.20;14.60;;;19.50;99.90;;;;;;5038679;28;20230;-66
2023/09/10 00:27:51;;;;;;;17.60;15.75;;;19.50;99.90;;;;;;5039342;28;20199;-66
2023/09/10 00:30:16;;;;;;;15.35;13.77;;;19.50;99.90;;;;;;5032759;28;20724;-65
2023/09/10 00:32:42;;;;;;;17.20;14.65;;;19.50;99.90;;;;;;5019414;28;20199;-65
2023/09/10 00:35:08;;;;;;;16.55;14.80;;;19.40;99.90;;;;;;5032730;28;20229;-66
2023/09/10 00:37:33;;;;;;;17.60;13.97;;;19.50;99.90;;;;;;5037347;28;20191;-66
2023/09/10 00:39:59;;;;;;;16.43;14.73;;;19.50;99.90;;;;;;5020632;28;20198;-66
2023/09/10 00:42:24;;;;;;;15.20;13.57;;;19.50;99.90;;;;;;5040127;28;20197;-66
2023/09/10 00:44:50;;;;;;;17.05;14.45;;;19.50;99.90;;;;;;5016178;28;20233;-66
2023/09/10 00:47:15;;;;;;;16.67;14.90;;;19.40;99.90;;;;;;5037408;28;20254;-66
2023/09/10 00:49:43;;;;;;;16.47;14.27;;;19.30;99.90;;;;;;5035070;28;20208;-66
2023/09/10 00:52:10;;;;;;;15.83;14.27;;;19.30;99.90;;;;;;5031259;28;20238;-64
2023/09/10 00:54:36;;;;;;;17.35;15.60;;;19.30;99.90;;;;;;5035848;28;20324;-66
2023/09/10 00:57:03;;;;;;;19.73;15.63;;;19.20;99.90;;;;;;5034158;28;20214;-64
2023/09/10 00:59:29;;;;;;;17.20;15.20;;;19.20;99.90;;;;;;5032097;28;20196;-64
2023/09/10 01:01:55;;;;;;;19.47;15.00;;;19.20;99.90;;;;;;5038422;28;20206;-64
2023/09/10 01:04:22;;;;;;;19.20;16.10;;;19.10;99.90;;;;;;5040155;28;20236;-67
2023/09/10 01:06:50;;;;;;;15.13;13.83;;;19.10;99.90;;;;;;5032846;28;20214;-66
2023/09/10 01:09:16;;;;;;;17.93;15.43;;;19.10;99.90;;;;;;5033925;28;20202;-67
2023/09/10 01:11:50;;;;;;;17.17;14.40;;;19.10;99.90;;;;;;5014625;28;20198;-65
2023/09/10 01:14:22;;;;;;;17.60;14.23;;;19.10;99.90;;;;;;5022664;28;20295;-57
2023/09/10 01:16:59;;;;;;;17.87;15.33;;;19.10;99.90;;;;;;5034498;28;20215;-57
2023/09/10 01:19:37;;;;;;;17.83;14.27;;;19.20;99.90;;;;;;5036832;28;20229;-59
2023/09/10 01:22:24;;;;;;;19.80;17.53;;;19.30;99.90;;;;;;5034308;28;20719;-61
2023/09/10 01:24:51;;;;;;;17.47;15.57;;;19.20;99.90;;;;;;5034482;28;20218;-62
2023/09/10 01:27:17;;;;;;;17.23;14.40;;;19.30;99.90;;;;;;5033911;28;20418;-61
2023/09/10 01:29:43;;;;;;;19.33;16.23;;;19.10;99.90;;;;;;5016326;28;20252;-61
2023/09/10 01:32:17;;;;;;;17.40;15.53;;;19.00;99.90;;;;;;5029984;28;20202;-61
2023/09/10 01:34:49;;;;;;;17.80;15.40;;;19.00;99.90;;;;;;5028178;28;20253;-60
2023/09/10 01:37:21;;;;;;;18.73;16.03;;;19.10;99.90;;;;;;5038771;28;20387;-60
2023/09/10 01:39:51;;;;;;;19.87;16.20;;;19.00;99.90;;;;;;5036056;28;20213;-60
2023/09/10 01:42:17;;;;;;;19.67;15.27;;;18.90;99.90;;;;;;5036841;28;20191;-61
2023/09/10 01:44:44;;;;;;;17.90;14.73;;;18.80;99.90;;;;;;5033400;28;20229;-61
2023/09/10 01:47:10;;;;;;;19.50;15.67;;;18.70;99.90;;;;;;5036184;28;20226;-62
2023/09/10 01:49:37;;;;;;;19.73;15.93;;;18.70;99.90;;;;;;5033585;28;20202;-60
2023/09/10 01:52:03;;;;;;;20.20;15.10;;;18.70;99.90;;;;;;5037499;28;20206;-60
2023/09/10 01:54:28;;;;;;;19.10;16.67;;;18.70;99.90;;;;;;5038273;28;20208;-60
2023/09/10 01:56:54;;;;;;;16.50;14.80;;;18.70;99.90;;;;;;5037578;28;20210;-61
2023/09/10 01:59:19;;;;;;;16.63;14.87;;;18.70;99.90;;;;;;5038418;28;21097;-61
2023/09/10 02:01:45;;;;;;;17.23;14.57;;;18.70;99.90;;;;;;5036028;28;20197;-61
2023/09/10 02:04:10;;;;;;;18.63;16.17;;;18.60;99.90;;;;;;5037376;28;21077;-60
2023/09/10 02:06:36;;;;;;;18.03;16.23;;;18.50;99.90;;;;;;5035446;28;20673;-59
2023/09/10 02:09:02;;;;;;;19.73;15.93;;;18.50;99.90;;;;;;5036066;28;20210;-59
2023/09/10 02:11:28;;;;;;;18.73;16.30;;;18.40;99.90;;;;;;5032638;28;20725;-60
2023/09/10 02:13:53;;;;;;;19.23;16.47;;;18.40;99.90;;;;;;5038259;28;20221;-58
2023/09/10 02:16:19;;;;;;;17.23;15.53;;;18.30;99.90;;;;;;5037878;28;20205;-59
2023/09/10 02:18:45;;;;;;;18.23;16.17;;;18.20;99.90;;;;;;5019355;28;20201;-58
2023/09/10 02:21:13;;;;;;;16.43;14.80;;;18.20;99.90;;;;;;5039479;28;20252;-59
2023/09/10 02:23:43;;;;;;;20.50;15.23;;;18.10;99.90;;;;;;5024165;28;20214;-58
2023/09/10 02:26:09;;;;;;;17.07;15.00;;;18.10;99.90;;;;;;5031212;28;20202;-59
2023/09/10 02:28:34;;;;;;;17.67;15.87;;;18.10;99.90;;;;;;5011934;28;20202;-59
2023/09/10 02:31:07;;;;;;;16.73;15.10;;;18.10;99.90;;;;;;5035052;28;20187;-59
2023/09/10 02:33:33;;;;;;;17.67;16.07;;;18.10;99.90;;;;;;5036206;28;20194;-59
2023/09/10 02:35:59;;;;;;;18.60;16.30;;;18.20;99.90;;;;;;5039628;28;20213;-59
2023/09/10 02:38:27;;;;;;;17.07;15.27;;;18.30;99.90;;;;;;5037615;28;20218;-60
2023/09/10 02:40:53;;;;;;;18.03;16.17;;;18.30;99.90;;;;;;5042300;28;20255;-60
2023/09/10 02:43:19;;;;;;;17.02;15.25;;;18.30;99.90;;;;;;5037597;28;20825;-59
2023/09/10 02:45:44;;;;;;;17.97;16.00;;;18.10;99.90;;;;;;5034340;28;20204;-61
2023/09/10 02:48:10;;;;;;;18.03;16.10;;;18.10;99.90;;;;;;5037722;28;20915;-60
2023/09/10 02:50:35;;;;;;;16.73;15.13;;;18.00;99.90;;;;;;5031215;28;20213;-60
2023/09/10 02:53:01;;;;;;;17.80;15.83;;;17.90;99.90;;;;;;5015465;28;20288;-60
2023/09/10 02:55:26;;;;;;;20.27;15.87;;;17.90;99.90;;;;;;5041333;28;20201;-59
2023/09/10 02:57:52;;;;;;;17.50;15.80;;;17.80;99.90;;;;;;5020625;28;20260;-61
2023/09/10 03:00:19;;;;;;;18.43;16.60;;;17.80;99.90;;;;;;5017758;28;20375;-62
2023/09/10 03:02:45;;;;;;;19.27;15.63;;;17.90;99.90;;;;;;5038123;28;20190;-57
2023/09/10 03:05:10;;;;;;;16.90;15.10;;;18.00;99.90;;;;;;5039272;28;20758;-58
2023/09/10 03:07:36;;;;;;;18.67;14.93;;;18.10;99.90;;;;;;5038627;28;20206;-62
2023/09/10 03:10:01;;;;;;;17.10;15.10;;;18.10;99.90;;;;;;5041903;28;20244;-58
2023/09/10 03:12:28;;;;;;;19.43;15.33;;;18.10;99.90;;;;;;5038500;28;20248;-58
2023/09/10 03:14:54;;;;;;;21.00;15.90;;;18.10;99.90;;;;;;5015642;28;20192;-58
2023/09/10 03:17:21;;;;;;;18.13;16.10;;;18.00;99.90;;;;;;5038094;28;20283;-60
2023/09/10 03:19:47;;;;;;;19.43;17.30;;;17.90;99.90;;;;;;5044868;28;20195;-57
2023/09/10 03:22:12;;;;;;;18.77;16.57;;;17.70;99.90;;;;;;5038746;28;20213;-58
2023/09/10 03:24:38;;;;;;;19.50;16.63;;;17.60;99.90;;;;;;5038555;28;20284;-58
2023/09/10 03:27:04;;;;;;;20.57;17.10;;;17.60;99.90;;;;;;5039777;28;20267;-57
2023/09/10 03:29:32;;;;;;;19.53;16.77;;;17.50;99.90;;;;;;5038161;28;20727;-58
2023/09/10 03:31:58;;;;;;;21.40;16.50;;;17.50;99.90;;;;;;5041815;28;20197;-59
2023/09/10 03:34:23;;;;;;;18.10;16.13;;;17.40;99.90;;;;;;5040677;28;20191;-57
2023/09/10 03:36:49;;;;;;;19.17;17.27;;;17.30;99.90;;;;;;5021167;28;20765;-57
2023/09/10 03:39:14;;;;;;;18.83;16.93;;;17.40;99.90;;;;;;5035436;28;20210;-57
2023/09/10 03:41:40;;;;;;;20.03;17.43;;;17.30;99.90;;;;;;5036735;28;20759;-56
2023/09/10 03:44:05;;;;;;;17.53;15.40;;;17.30;99.90;;;;;;5034600;28;20221;-57
2023/09/10 03:46:31;;;;;;;17.07;15.27;;;17.40;99.90;;;;;;5044556;28;20213;-57
2023/09/10 03:48:56;;;;;;;17.67;15.87;;;17.30;99.90;;;;;;5034854;28;20230;-57
2023/09/10 03:51:22;;;;;;;18.13;15.80;;;17.40;99.90;;;;;;5037169;28;20584;-57
2023/09/10 03:53:47;;;;;;;19.60;16.70;;;17.40;99.90;;;;;;5037856;28;20237;-57
2023/09/10 03:56:13;;;;;;;18.30;16.43;;;17.30;99.90;;;;;;5021235;28;20236;-57
2023/09/10 03:58:39;;;;;;;20.40;15.93;;;17.30;99.90;;;;;;5031351;28;20709;-56
2023/09/10 04:01:04;;;;;;;17.07;15.27;;;17.30;99.90;;;;;;5043574;28;20205;-56
2023/09/10 04:03:30;;;;;;;19.10;15.80;;;17.30;99.90;;;;;;5035424;28;20277;-56
2023/09/10 04:05:55;;;;;;;23.63;18.93;;;17.20;99.90;;;;;;5035934;28;20206;-56
2023/09/10 04:08:21;;;;;;;18.93;16.70;;;17.10;99.90;;;;;;5031824;28;20203;-57
2023/09/10 04:10:46;;;;;;;17.90;16.07;;;17.10;99.90;;;;;;5036836;28;20367;-56
2023/09/10 04:13:11;;;;;;;17.30;15.37;;;17.00;99.90;;;;;;5013824;28;20224;-58
2023/09/10 04:15:37;;;;;;;17.63;15.83;;;17.10;99.90;;;;;;5036258;28;20216;-58
2023/09/10 04:18:06;;;;;;;18.33;16.40;;;17.10;99.90;;;;;;5036455;28;20677;-59
2023/09/10 04:20:32;;;;;;;19.73;17.07;;;17.00;99.90;;;;;;5034659;28;20197;-59
2023/09/10 04:22:58;;;;;;;19.63;16.40;;;17.10;99.90;;;;;;5037403;28;20206;-61
2023/09/10 04:25:24;;;;;;;20.37;15.90;;;17.10;99.90;;;;;;5037025;28;20226;-60
2023/09/10 04:27:49;;;;;;;17.50;15.60;;;17.10;99.90;;;;;;5037973;28;20209;-60
2023/09/10 04:30:15;;;;;;;17.67;15.03;;;17.10;99.90;;;;;;5033842;28;20310;-60
2023/09/10 04:32:40;;;;;;;19.93;15.83;;;17.20;99.90;;;;;;5039095;28;20234;-59
2023/09/10 04:35:06;;;;;;;17.37;15.57;;;17.30;99.90;;;;;;5036411;28;20209;-60
2023/09/10 04:37:33;;;;;;;18.70;16.47;;;17.30;99.90;;;;;;5034512;28;20194;-61
2023/09/10 04:39:58;;;;;;;18.13;16.03;;;17.20;99.90;;;;;;5037675;28;20345;-61
2023/09/10 04:42:24;;;;;;;17.23;15.27;;;17.20;99.90;;;;;;5035769;28;20348;-60
2023/09/10 04:44:49;;;;;;;18.23;16.13;;;17.20;99.90;;;;;;5035744;28;20279;-62
2023/09/10 04:47:15;;;;;;;21.07;16.47;;;17.10;99.90;;;;;;5030800;28;20232;-61
2023/09/10 04:49:41;;;;;;;17.97;16.17;;;17.10;99.90;;;;;;5035930;28;20293;-62
2023/09/10 04:52:07;;;;;;;19.57;16.83;;;17.10;99.90;;;;;;5039785;28;20632;-63
2023/09/10 04:54:32;;;;;;;18.00;15.97;;;17.20;99.90;;;;;;5035343;28;20292;-60
2023/09/10 04:56:58;;;;;;;17.83;16.03;;;17.20;99.90;;;;;;5034737;28;20441;-64
2023/09/10 04:59:23;;;;;;;17.93;16.03;;;17.20;99.90;;;;;;5037484;28;20227;-60
2023/09/10 05:01:49;;;;;;;17.27;15.57;;;17.30;99.90;;;;;;5036487;28;20205;-59
2023/09/10 05:04:14;;;;;;;18.70;16.63;;;17.20;99.90;;;;;;5034454;28;20231;-59
2023/09/10 05:06:40;;;;;;;18.27;16.20;;;17.20;99.90;;;;;;5037429;28;20532;-63
2023/09/10 05:09:08;;;;;;;18.17;15.90;;;17.20;99.90;;;;;;5016820;28;20368;-62
2023/09/10 05:11:33;;;;;;;18.90;16.67;;;17.20;99.90;;;;;;5040527;28;20205;-62
2023/09/10 05:13:58;;;;;;;20.07;16.77;;;17.10;99.90;;;;;;5033418;28;20210;-63
2023/09/10 05:16:24;;;;;;;22.03;17.60;;;17.10;99.90;;;;;;5038910;28;20233;-62
2023/09/10 05:18:49;;;;;;;17.40;15.57;;;17.10;99.90;;;;;;5019028;28;20627;-63
2023/09/10 05:21:15;;;;;;;21.90;17.60;;;17.10;99.90;;;;;;5038281;28;20806;-62
2023/09/10 05:23:40;;;;;;;18.50;16.60;;;17.10;99.90;;;;;;5038606;28;20224;-63
2023/09/10 05:26:06;;;;;;;20.60;18.37;;;17.20;99.90;;;;;;5031122;28;20212;-63
2023/09/10 05:28:31;;;;;;;22.97;17.27;;;17.20;99.90;;;;;;5035066;28;20221;-62
2023/09/10 05:31:02;;;;;;;21.90;18.47;;;17.20;99.90;;;;;;5032541;28;20232;-63
2023/09/10 05:33:28;;;;;;;18.77;16.73;;;17.30;99.90;;;;;;5035934;28;20192;-63
2023/09/10 05:35:57;;;;;;;18.47;16.47;;;17.30;99.90;;;;;;5036021;28;20210;-63
2023/09/10 05:38:23;;;;;;;18.50;16.63;;;17.30;99.90;;;;;;5017198;28;20687;-63
2023/09/10 05:40:49;;;;;;;18.13;16.23;;;17.30;99.90;;;;;;5036124;28;20190;-61
2023/09/10 05:43:14;;;;;;;22.17;17.63;;;17.40;99.90;;;;;;5040655;28;20671;-61
2023/09/10 05:45:40;;;;;;;20.30;15.97;;;17.50;99.90;;;;;;5034667;28;20222;-63
2023/09/10 05:48:05;;;;;;;20.23;18.07;;;17.50;99.90;;;;;;5032734;28;20343;-64
2023/09/10 05:50:31;;;;;;;19.60;17.67;;;17.60;99.90;;;;;;5017599;28;20297;-64
2023/09/10 05:52:57;;;;;;;18.67;16.60;;;17.70;99.90;;;;;;5018141;28;20258;-66
2023/09/10 05:55:25;;;;;;;19.17;17.17;;;17.70;99.90;;;;;;5014302;28;20199;-62
2023/09/10 05:57:54;;;;;;;21.03;16.60;;;17.80;99.90;;;;;;5036445;28;20195;-63
2023/09/10 06:00:21;;;;;;;18.53;16.23;;;17.80;99.90;;;;;;5035727;28;20226;-63
2023/09/10 06:02:49;;;;;;;20.33;18.20;;;17.90;99.90;;;;;;5038246;28;20249;-63
2023/09/10 06:05:15;;;;;;;19.20;17.30;;;18.00;99.90;;;;;;5033462;28;20276;-63
2023/09/10 06:07:41;;;;;;;20.30;18.17;;;18.00;99.90;;;;;;5032896;28;20230;-66
2023/09/10 06:10:09;;;;;;;19.53;17.63;;;18.10;99.90;;;;;;5028069;28;20644;-68
2023/09/10 06:12:38;;;;;;;21.30;17.57;;;18.10;99.90;;;;;;5034653;28;20190;-63
2023/09/10 06:15:07;;;;;;;22.60;17.40;;;18.20;99.90;;;;;;5015402;28;20722;-63
2023/09/10 06:17:35;;;;;;;21.10;17.43;;;18.30;99.90;;;;;;5034793;28;20202;-63
2023/09/10 06:20:02;;;;;;;22.17;18.07;;;18.30;99.90;;;;;;5016263;28;20292;-64
2023/09/10 06:22:28;;;;;;;20.03;17.13;;;18.40;99.90;;;;;;5036570;28;20191;-63
2023/09/10 06:24:54;;;;;;;19.93;17.73;;;18.50;99.90;;;;;;5015019;28;20236;-67
2023/09/10 06:27:20;;;;;;;20.40;16.23;;;18.50;99.90;;;;;;5038261;28;20526;-61
2023/09/10 06:29:46;;;;;;;18.87;16.97;;;18.60;99.90;;;;;;5042613;28;20249;-65
2023/09/10 06:32:11;;;;;;;17.67;15.83;;;18.70;99.90;;;;;;5046872;28;20229;-60
2023/09/10 06:34:37;;;;;;;16.40;14.70;;;18.80;99.90;;;;;;5041002;28;20213;-64
2023/09/10 06:37:03;;;;;;;16.40;14.03;;;18.90;99.90;;;;;;5043498;28;20202;-62
2023/09/10 06:39:29;;;;;;;17.00;14.73;;;19.00;99.90;;;;;;5043082;28;20206;-62
2023/09/10 06:41:54;;;;;;;15.20;13.60;;;19.10;99.90;;;;;;5042754;28;20194;-63
2023/09/10 06:44:20;;;;;;;15.23;13.87;;;19.20;99.90;;;;;;5039227;28;20310;-63
2023/09/10 06:46:46;;;;;;;15.73;14.17;;;19.30;99.90;;;;;;5038109;28;20201;-63
2023/09/10 06:49:11;;;;;;;17.67;15.13;;;19.30;99.90;;;;;;5043210;28;20233;-64
2023/09/10 06:51:37;;;;;;;16.37;14.87;;;19.40;99.90;;;;;;5045444;28;20215;-63
2023/09/10 06:54:03;;;;;;;14.30;13.00;;;19.40;99.90;;;;;;5043368;28;20251;-64
2023/09/10 06:56:31;;;;;;;16.00;14.40;;;19.50;99.90;;;;;;5040905;28;20205;-66
2023/09/10 06:58:56;;;;;;;15.43;14.03;;;19.60;99.90;;;;;;5039940;28;20325;-60
2023/09/10 07:01:22;;;;;;;15.37;12.57;;;19.60;99.90;;;;;;5043379;28;20206;-60
2023/09/10 07:03:52;;;;;;;14.13;12.70;;;19.70;99.90;;;;;;5037948;28;20271;-60
2023/09/10 07:06:17;;;;;;;13.73;12.30;;;19.80;99.90;;;;;;5026493;28;20486;-60
2023/09/10 07:08:43;;;;;;;13.70;12.40;;;20.00;99.90;;;;;;5042044;28;20335;-61
2023/09/10 07:11:08;;;;;;;12.52;11.25;;;20.20;99.90;;;;;;5043571;28;20233;-60
2023/09/10 07:13:36;;;;;;;13.40;12.00;;;20.30;99.90;;;;;;5043066;28;20205;-62
2023/09/10 07:16:02;;;;;;;11.67;10.57;;;20.40;99.90;;;;;;5045779;28;20202;-61
2023/09/10 07:18:32;;;;;;;11.87;9.93;;;20.60;99.90;;;;;;5020658;28;21023;-62
2023/09/10 07:21:01;;;;;;;12.30;11.07;;;20.60;99.90;;;;;;5035657;28;23337;-62
2023/09/10 07:23:27;;;;;;;11.80;10.70;;;20.60;99.90;;;;;;5045599;28;20205;-64
2023/09/10 07:25:54;;;;;;;11.20;10.20;;;20.70;99.90;;;;;;5042790;28;20289;-64
2023/09/10 07:28:19;;;;;;;11.53;10.47;;;20.70;99.90;;;;;;5035310;28;20200;-61
2023/09/10 07:30:45;;;;;;;11.07;10.00;;;20.90;99.90;;;;;;5040269;28;20273;-60
2023/09/10 07:33:10;;;;;;;10.93;9.83;;;20.90;99.90;;;;;;5041507;28;20286;-60
2023/09/10 07:35:36;;;;;;;13.13;11.50;;;21.00;99.90;;;;;;5043650;28;20191;-60
2023/09/10 07:38:01;;;;;;;10.57;9.55;;;20.90;99.90;;;;;;5035191;28;21146;-61
2023/09/10 07:40:27;;;;;;;10.85;9.88;;;21.00;99.90;;;;;;5034823;28;20906;-60
2023/09/10 07:42:52;;;;;;;11.05;9.13;;;21.00;99.90;;;;;;5035135;28;20202;-61
2023/09/10 07:45:18;;;;;;;15.43;9.50;;;21.10;99.90;;;;;;5037213;28;20218;-62
2023/09/10 07:47:46;;;;;;;12.93;9.77;;;21.30;99.90;;;;;;5017756;28;20221;-62
2023/09/10 07:50:11;;;;;;;10.20;9.20;;;21.30;99.90;;;;;;5038342;28;20187;-63
2023/09/10 07:52:40;;;;;;;10.05;9.05;;;21.50;99.90;;;;;;5046837;28;20259;-63
2023/09/10 07:55:06;;;;;;;8.90;8.10;;;21.60;99.90;;;;;;5036463;28;20665;-64
2023/09/10 07:57:31;;;;;;;9.37;8.40;;;21.80;99.90;;;;;;5023922;28;20199;-62
2023/09/10 07:59:57;;;;;;;10.73;9.67;;;21.90;99.90;;;;;;5038473;28;20756;-63
2023/09/10 08:02:26;;;;;;;10.45;9.45;;;21.90;99.90;;;;;;5036210;28;21022;-61
2023/09/10 08:04:52;;;;;;;12.70;9.80;;;22.10;99.90;;;;;;5035348;28;20219;-65
2023/09/10 08:07:18;;;;;;;9.03;8.13;;;22.10;99.90;;;;;;5038245;28;20787;-65
2023/09/10 08:09:43;;;;;;;9.60;8.75;;;22.10;99.90;;;;;;5028807;28;20195;-63
2023/09/10 08:12:09;;;;;;;8.80;8.07;;;22.20;99.90;;;;;;5042750;28;20313;-62
2023/09/10 08:14:35;;;;;;;10.95;9.82;;;22.30;99.90;;;;;;5035659;28;20203;-62
2023/09/10 08:17:01;;;;;;;8.65;7.85;;;22.40;99.90;;;;;;5035344;28;20199;-66
2023/09/10 08:19:27;;;;;;;9.05;8.18;;;22.50;99.90;;;;;;5019522;28;20277;-61
2023/09/10 08:21:53;;;;;;;9.27;8.43;;;22.60;99.90;;;;;;5037079;28;20221;-63
2023/09/10 08:24:18;;;;;;;10.40;8.90;;;22.60;99.90;;;;;;5017622;28;20210;-62
2023/09/10 08:26:43;;;;;;;10.32;8.07;;;22.70;99.90;;;;;;5020004;28;20672;-59
2023/09/10 08:29:09;;;;;;;8.52;7.82;;;22.80;99.90;;;;;;5038571;28;20214;-60
2023/09/10 08:31:34;;;;;;;8.95;8.15;;;22.80;99.90;;;;;;5042895;28;20321;-60
2023/09/10 08:34:00;;;;;;;8.70;7.97;;;22.90;99.90;;;;;;5032915;28;20776;-60
2023/09/10 08:36:26;;;;;;;10.13;8.70;;;23.00;99.90;;;;;;5037416;28;20186;-61
2023/09/10 08:38:53;;;;;;;9.27;7.97;;;23.00;99.90;;;;;;5016723;28;20670;-60
2023/09/10 08:41:28;;;;;;;9.95;9.02;;;23.10;99.90;;;;;;5038147;28;20339;-61
2023/09/10 08:43:56;;;;;;;10.18;9.15;;;23.40;99.90;;;;;;5032263;28;20204;-63
2023/09/10 08:46:29;;;;;;;10.45;8.75;;;23.50;99.90;;;;;;5041105;28;20911;-60
2023/09/10 08:48:57;;;;;;;10.07;7.80;;;23.60;99.90;;;;;;5042726;28;20315;-61
2023/09/10 08:51:23;;;;;;;11.80;9.85;;;23.70;99.90;;;;;;5037310;28;20202;-60
2023/09/10 08:53:51;;;;;;;9.13;8.23;;;23.70;99.90;;;;;;5034948;28;20188;-65
2023/09/10 08:56:17;;;;;;;8.15;6.80;;;23.70;99.90;;;;;;5034724;28;20240;-62
2023/09/10 08:58:45;;;;;;;8.95;6.78;;;23.80;99.90;;;;;;5038450;28;20230;-64
2023/09/10 09:01:12;;;;;;;7.63;7.03;;;23.80;99.90;;;;;;5037650;28;20197;-64
2023/09/10 09:03:38;;;;;;;8.35;7.47;;;23.80;99.90;;;;;;5019955;28;20375;-62
2023/09/10 09:06:05;;;;;;;7.68;7.00;;;23.90;99.90;;;;;;5019148;28;20667;-62
2023/09/10 09:08:35;;;;;;;7.25;6.65;;;23.90;99.90;;;;;;5041136;28;20273;-61
2023/09/10 09:11:06;;;;;;;7.30;6.60;;;24.00;99.90;;;;;;5032130;28;20204;-63
2023/09/10 09:13:38;;;;;;;8.05;7.38;;;24.20;99.90;;;;;;5033775;28;20265;-62
2023/09/10 09:16:05;;;;;;;8.35;7.57;;;24.20;99.90;;;;;;5033392;28;20285;-62
2023/09/10 09:18:33;;;;;;;7.40;6.78;;;24.20;99.90;;;;;;5033085;28;20259;-62
2023/09/10 09:21:04;;;;;;;7.22;6.53;;;24.20;99.90;;;;;;5020824;28;20199;-61
2023/09/10 09:23:32;;;;;;;8.30;6.80;;;24.20;99.90;;;;;;5018475;28;20245;-60
2023/09/10 09:25:58;;;;;;;7.88;7.07;;;24.20;99.90;;;;;;5030244;28;20743;-60
2023/09/10 09:28:27;;;;;;;8.23;7.38;;;24.40;99.30;;;;;;5032307;28;20204;-62
2023/09/10 09:30:53;;;;;;;19.38;9.65;;;24.40;99.90;;;;;;5035866;28;20201;-64
2023/09/10 09:33:24;;;;;;;7.15;6.45;;;24.60;99.90;;;;;;5040861;28;20251;-66
2023/09/10 09:35:51;;;;;;;13.20;8.38;;;24.00;99.90;;;;;;5020313;28;20204;-68
2023/09/10 09:38:16;;;;;;;12.98;9.15;;;23.50;99.90;;;;;;5035997;28;20206;-67
2023/09/10 09:40:44;;;;;;;13.40;11.40;;;22.90;99.90;;;;;;5019258;28;20189;-64
2023/09/10 09:43:11;;;;;;;7.25;6.65;;;22.20;99.90;;;;;;5039849;28;20203;-62
2023/09/10 09:45:37;;;;;;;8.70;7.80;;;21.70;99.90;;;;;;5033427;28;20218;-60
2023/09/10 09:48:04;;;;;;;7.82;6.70;;;21.60;99.90;;;;;;5036107;28;20223;-60
2023/09/10 09:50:30;;;;;;;7.47;6.78;;;21.10;99.90;;;;;;5035914;28;20421;-62
2023/09/10 09:52:56;;;;;;;6.95;6.30;;;20.90;99.90;;;;;;5034834;28;20197;-64
2023/09/10 09:55:22;;;;;;;6.65;6.05;;;20.90;99.90;;;;;;5029715;28;20778;-63
2023/09/10 09:57:50;;;;;;;8.55;6.45;;;20.80;99.90;;;;;;5036206;28;21221;-63
2023/09/10 10:00:17;;;;;;;7.13;6.53;;;20.50;99.90;;;;;;5030548;28;20234;-62
2023/09/10 10:02:43;;;;;;;9.00;8.13;;;20.50;99.90;;;;;;5033158;28;20194;-61
2023/09/10 10:05:09;;;;;;;9.15;7.15;;;20.40;99.90;;;;;;5036012;28;20229;-62
2023/09/10 10:07:40;;;;;;;6.90;6.22;;;20.40;99.90;;;;;;5036382;28;20202;-64
2023/09/10 10:10:07;;;;;;;8.07;7.28;;;20.90;99.90;;;;;;5033284;28;20218;-64
2023/09/10 10:12:33;;;;;;;8.00;6.57;;;21.30;99.90;;;;;;5037388;28;20202;-64
2023/09/10 10:14:59;;;;;;;6.90;6.28;;;21.30;99.90;;;;;;5031979;28;20209;-63
2023/09/10 10:17:26;;;;;;;6.72;6.05;;;22.00;99.90;;;;;;5037221;28;20192;-61
2023/09/10 10:19:52;;;;;;;6.22;5.68;;;22.40;99.90;;;;;;5018150;28;20201;-62
2023/09/10 10:22:19;;;;;;;7.15;6.43;;;23.10;99.90;;;;;;5039572;28;20205;-63
2023/09/10 10:24:45;;;;;;;8.10;7.40;;;23.50;99.90;;;;;;5036902;28;20226;-62
2023/09/10 10:27:13;;;;;;;10.40;6.47;;;23.80;99.90;;;;;;5035343;28;20216;-63
2023/09/10 10:29:39;;;;;;;7.82;6.50;;;24.00;99.90;;;;;;5039040;28;20276;-64
2023/09/10 10:32:27;;;;;;;8.45;6.90;;;23.60;99.90;;;;;;5036033;28;20232;-63
2023/09/10 10:34:59;;;;;;;7.47;6.78;;;23.30;99.90;;;;;;5035603;28;20698;-63
2023/09/10 10:37:44;;;;;;;7.22;6.53;;;23.40;99.90;;;;;;5031686;28;20284;-63
2023/09/10 10:40:21;;;;;;;9.05;6.53;;;23.50;99.90;;;;;;5033505;28;20212;-61
2023/09/10 10:43:12;;;;;;;6.95;6.25;;;23.70;99.90;;;;;;5032449;28;20189;-62
2023/09/10 10:45:39;;;;;;;5.80;5.30;;;23.90;99.90;;;;;;5024224;28;20277;-61
2023/09/10 10:48:10;;;;;;;6.75;6.05;;;24.70;99.90;;;;;;5034206;28;20229;-62
2023/09/10 10:50:39;;;;;;;5.72;5.28;;;24.60;99.90;;;;;;5033422;28;20205;-65
2023/09/10 10:53:11;;;;;;;9.27;5.55;;;24.30;99.90;;;;;;5015695;28;20530;-64
2023/09/10 10:55:38;;;;;;;5.78;5.22;;;24.60;99.50;;;;;;5030760;28;20553;-64
2023/09/10 10:58:04;;;;;;;8.50;4.80;;;24.40;99.90;;;;;;5033126;28;20200;-62
2023/09/10 11:00:30;;;;;;;8.20;5.65;;;24.70;98.20;;;;;;5017349;28;20221;-63
2023/09/10 11:03:16;;;;;;;6.05;5.20;;;24.50;97.60;;;;;;5032248;28;20199;-63
2023/09/10 11:06:05;;;;;;;7.40;5.32;;;24.70;99.00;;;;;;5030398;28;20582;-60
2023/09/10 11:08:46;;;;;;;8.05;5.63;;;25.10;99.30;;;;;;5026796;28;20210;-62
2023/09/10 11:11:37;;;;;;;5.22;4.43;;;25.50;98.40;;;;;;5029563;28;20198;-59
2023/09/10 11:14:08;;;;;;;5.45;4.97;;;25.50;96.50;;;;;;5037886;28;20609;-60
2023/09/10 11:16:42;;;;;;;5.75;5.10;;;25.50;93.70;;;;;;5039359;28;20205;-60
2023/09/10 11:19:44;;;;;;;5.20;4.75;;;25.60;96.50;;;;;;5025862;28;20229;-60
2023/09/10 11:22:10;;;;;;;6.72;4.85;;;25.80;92.00;;;;;;5018667;28;20285;-60
2023/09/10 11:24:36;;;;;;;5.40;4.90;;;26.20;92.00;;;;;;5037649;28;20225;-60
2023/09/10 11:27:21;;;;;;;5.05;4.65;;;26.70;90.60;;;;;;5039808;28;20223;-60
2023/09/10 11:30:26;;;;;;;5.93;5.43;;;27.00;91.30;;;;;;5021073;28;20615;-60
2023/09/10 11:33:27;;;;;;;5.53;5.13;;;27.30;85.90;;;;;;4953026;28;20225;-61
2023/09/10 11:35:54;;;;;;;6.63;4.22;;;27.70;81.40;;;;;;4951273;28;20353;-61
2023/09/10 11:38:20;;;;;;;5.88;5.43;;;28.00;77.00;;;;;;5005570;28;20211;-61
2023/09/10 11:40:46;;;;;;;4.88;4.47;;;28.50;78.40;;;;;;5032435;28;20230;-66
2023/09/10 11:43:12;;;;;;;5.55;5.07;;;28.50;79.20;;;;;;5042760;28;20224;-65
2023/09/10 11:45:37;;;;;;;7.22;5.28;;;28.40;81.00;;;;;;5037050;28;20729;-66
2023/09/10 11:48:03;;;;;;;5.25;4.85;;;29.00;73.70;;;;;;5040544;28;20360;-65
2023/09/10 11:50:29;;;;;;;5.03;4.63;;;29.30;75.60;;;;;;5028605;28;20216;-65
2023/09/10 11:52:54;;;;;;;5.65;5.15;;;29.10;74.10;;;;;;5037436;28;20211;-65
2023/09/10 11:55:20;;;;;;;5.15;4.72;;;29.10;70.40;;;;;;5016915;28;20247;-61
2023/09/10 11:57:46;;;;;;;7.82;5.50;;;29.30;75.70;;;;;;5043115;28;20199;-66
2023/09/10 12:00:13;;;;;;;5.53;4.78;;;30.00;66.50;;;;;;5038598;28;20190;-64
2023/09/10 12:02:40;;;;;;;5.43;4.93;;;30.40;68.10;;;;;;5032891;28;20195;-67
2023/09/10 12:05:08;;;;;;;5.65;5.15;;;30.60;65.00;;;;;;5039049;28;20287;-66
2023/09/10 12:07:34;;;;;;;5.28;4.80;;;31.30;59.80;;;;;;5017045;28;20967;-64
2023/09/10 12:09:59;;;;;;;5.97;5.22;;;31.90;57.60;;;;;;5037410;28;20211;-63
2023/09/10 12:12:30;;;;;;;5.68;4.78;;;32.10;59.50;;;;;;5036613;28;20206;-65
2023/09/10 12:14:56;;;;;;;9.07;5.00;;;32.20;55.60;;;;;;5009350;28;20267;-65
2023/09/10 12:17:23;;;;;;;5.40;4.90;;;30.70;57.30;;;;;;5037121;28;20202;-67
2023/09/10 12:19:49;;;;;;;5.28;4.80;;;30.60;61.40;;;;;;5034880;28;20234;-62
2023/09/10 12:22:18;;;;;;;5.03;4.53;;;30.90;63.30;;;;;;5039061;28;20198;-61
2023/09/10 12:24:44;;;;;;;9.63;4.35;;;31.30;59.20;;;;;;5040207;28;20230;-65
2023/09/10 12:27:13;;;;;;;5.93;5.43;;;31.90;56.20;;;;;;5041363;28;20855;-65
2023/09/10 12:29:39;;;;;;;5.47;4.97;;;32.30;62.10;;;;;;5047656;28;20601;-66
2023/09/10 12:32:05;;;;;;;5.10;4.70;;;32.10;63.00;;;;;;5017674;28;20203;-65
2023/09/10 12:34:32;;;;;;;4.75;4.40;;;32.20;57.00;;;;;;5038536;28;20214;-68